Time;durP1;ratioP1;P1;durP2;ratioP2;P2;SDS_P1;SDS_P2;PMS_P1;PMS_P2;Temp;Humidity;BMP_temperature;BMP_pressure;BME280_temperature;BME280_humidity;BME280_pressure;Samples;Min_cycle;Max_cycle;Signal;HPM_P1;HPM_P2
2023/03/24 00:00:10;;;;;;;;;;;;;;;;;;5051057;28;19963;-61
2023/03/24 00:02:36;;;;;;;;;;;;;;;;;;5047589;28;20360;-61
2023/03/24 00:05:02;;;;;;;;;;;;;;;;;;5051917;28;19917;-60
2023/03/24 00:07:29;;;;;;;;;;;;;;;;;;5055735;28;19913;-60
2023/03/24 00:09:55;;;;;;;;;;;;;;;;;;5055346;28;20296;-61
2023/03/24 00:12:21;;;;;;;;;;;;;;;;;;5056035;28;19912;-60
2023/03/24 00:14:47;;;;;;;;;;;;;;;;;;5053299;28;19923;-60
2023/03/24 00:17:13;;;;;;;;;;;;;;;;;;5057268;28;20361;-61
2023/03/24 00:19:38;;;;;;;;;;;;;;;;;;5054264;28;19916;-61
2023/03/24 00:22:04;;;;;;;;;;;;;;;;;;5058948;28;20376;-61
2023/03/24 00:24:31;;;;;;;;;;;;;;;;;;5057911;28;19916;-60
2023/03/24 00:26:57;;;;;;;;;;;;;;;;;;5058603;28;19909;-61
2023/03/24 00:29:24;;;;;;;;;;;;;;;;;;5063681;28;19920;-61
2023/03/24 00:31:51;;;;;;;;;;;;;;;;;;5056569;28;19912;-61
2023/03/24 00:34:20;;;;;;;;;;;;;;;;;;5055871;28;20380;-60
2023/03/24 00:36:47;;;;;;;;;;;;;;;;;;5055790;28;19913;-60
2023/03/24 00:39:14;;;;;;;;;;;;;;;;;;5049629;28;20411;-60
2023/03/24 00:41:43;;;;;;;;;;;;;;;;;;5055263;28;19909;-61
2023/03/24 00:44:16;;;;;;;;;;;;;;;;;;5048745;28;19996;-61
2023/03/24 00:46:44;;;;;;;;;;;;;;;;;;5051954;28;20411;-61
2023/03/24 00:49:11;;;;;;;;;;;;;;;;;;5055955;28;19909;-61
2023/03/24 00:51:37;;;;;;;;;;;;;;;;;;5054852;28;19909;-60
2023/03/24 00:54:03;;;;;;;;;;;;;;;;;;5055617;28;19909;-61
2023/03/24 00:56:30;;;;;;;;;;;;;;;;;;5055826;28;19909;-60
2023/03/24 00:58:56;;;;;;;;;;;;;;;;;;5055731;28;19913;-60
2023/03/24 01:01:22;;;;;;;;;;;;;;;;;;5056335;28;20392;-61
2023/03/24 01:03:49;;;;;;;;;;;;;;;;;;5056498;28;19917;-61
2023/03/24 01:06:15;;;;;;;;;;;;;;;;;;5059277;28;19912;-61
2023/03/24 01:08:42;;;;;;;;;;;;;;;;;;5059299;28;19913;-61
2023/03/24 01:11:09;;;;;;;;;;;;;;;;;;5055862;28;19986;-61
2023/03/24 01:13:35;;;;;;;;;;;;;;;;;;5058286;28;19913;-60
2023/03/24 01:16:02;;;;;;;;;;;;;;;;;;5058824;28;19916;-61
2023/03/24 01:18:28;;;;;;;;;;;;;;;;;;5058976;28;19909;-60
2023/03/24 01:20:54;;;;;;;;;;;;;;;;;;5055652;28;19916;-61
2023/03/24 01:23:20;;;;;;;;;;;;;;;;;;5055799;28;20369;-61
2023/03/24 01:25:47;;;;;;;;;;;;;;;;;;5058575;28;19916;-61
2023/03/24 01:28:12;;;;;;;;;;;;;;;;;;5058668;28;19920;-61
2023/03/24 01:30:38;;;;;;;;;;;;;;;;;;5058794;28;19959;-61
2023/03/24 01:33:04;;;;;;;;;;;;;;;;;;5059706;28;19942;-60
2023/03/24 01:35:30;;;;;;;;;;;;;;;;;;5058782;28;19956;-61
2023/03/24 01:37:56;;;;;;;;;;;;;;;;;;5059828;28;19919;-61
2023/03/24 01:40:22;;;;;;;;;;;;;;;;;;5059850;28;19919;-61
2023/03/24 01:42:49;;;;;;;;;;;;;;;;;;5059497;28;19916;-61
2023/03/24 01:45:15;;;;;;;;;;;;;;;;;;5057514;28;19916;-60
2023/03/24 01:47:41;;;;;;;;;;;;;;;;;;5058217;28;19909;-60
2023/03/24 01:50:07;;;;;;;;;;;;;;;;;;5058505;28;20418;-61
2023/03/24 01:52:33;;;;;;;;;;;;;;;;;;5058462;28;19912;-61
2023/03/24 01:54:59;;;;;;;;;;;;;;;;;;5058916;28;19913;-61
2023/03/24 01:57:25;;;;;;;;;;;;;;;;;;5059349;28;19908;-61
2023/03/24 01:59:51;;;;;;;;;;;;;;;;;;5058275;28;20281;-61
2023/03/24 02:02:17;;;;;;;;;;;;;;;;;;5057933;28;20152;-61
2023/03/24 02:04:43;;;;;;;;;;;;;;;;;;5057969;28;19925;-61
2023/03/24 02:07:09;;;;;;;;;;;;;;;;;;5059429;28;19909;-61
2023/03/24 02:09:34;;;;;;;;;;;;;;;;;;5059081;28;19909;-61
2023/03/24 02:12:01;;;;;;;;;;;;;;;;;;5059225;28;19920;-61
2023/03/24 02:14:27;;;;;;;;;;;;;;;;;;5057532;28;19920;-61
2023/03/24 02:16:53;;;;;;;;;;;;;;;;;;5058684;28;19913;-61
2023/03/24 02:19:22;;;;;;;;;;;;;;;;;;5059040;28;19908;-61
2023/03/24 02:21:48;;;;;;;;;;;;;;;;;;5057757;28;19909;-61
2023/03/24 02:24:14;;;;;;;;;;;;;;;;;;5058770;28;19927;-61
2023/03/24 02:26:40;;;;;;;;;;;;;;;;;;5057975;28;19959;-61
2023/03/24 02:29:06;;;;;;;;;;;;;;;;;;5059524;28;19912;-60
2023/03/24 02:31:32;;;;;;;;;;;;;;;;;;5059181;28;19944;-61
2023/03/24 02:33:58;;;;;;;;;;;;;;;;;;5059884;28;19985;-61
2023/03/24 02:36:24;;;;;;;;;;;;;;;;;;5059550;28;19967;-60
2023/03/24 02:38:50;;;;;;;;;;;;;;;;;;5057523;28;20059;-60
2023/03/24 02:41:16;;;;;;;;;;;;;;;;;;5057808;28;20249;-61
2023/03/24 02:43:42;;;;;;;;;;;;;;;;;;5055007;28;19943;-61
2023/03/24 02:46:12;;;;;;;;;;;;;;;;;;5057878;28;19919;-61
2023/03/24 02:48:38;;;;;;;;;;;;;;;;;;5056114;28;19913;-60
2023/03/24 02:51:04;;;;;;;;;;;;;;;;;;5054368;28;19909;-61
2023/03/24 02:53:31;;;;;;;;;;;;;;;;;;5048491;28;19959;-60
2023/03/24 02:55:56;;;;;;;;;;;;;;;;;;5052269;28;19921;-60
2023/03/24 02:58:22;;;;;;;;;;;;;;;;;;5052720;28;19961;-60
2023/03/24 03:00:48;;;;;;;;;;;;;;;;;;5052271;28;19954;-60
2023/03/24 03:03:14;;;;;;;;;;;;;;;;;;5053450;28;19909;-60
2023/03/24 03:05:40;;;;;;;;;;;;;;;;;;5052893;28;19909;-60
2023/03/24 03:08:06;;;;;;;;;;;;;;;;;;5054067;28;19916;-61
2023/03/24 03:10:32;;;;;;;;;;;;;;;;;;5054454;28;19958;-60
2023/03/24 03:12:58;;;;;;;;;;;;;;;;;;5055124;28;19913;-60
2023/03/24 03:15:24;;;;;;;;;;;;;;;;;;5053487;28;19912;-61
2023/03/24 03:17:51;;;;;;;;;;;;;;;;;;5053830;28;19915;-61
2023/03/24 03:20:19;;;;;;;;;;;;;;;;;;5054226;28;19919;-60
2023/03/24 03:22:45;;;;;;;;;;;;;;;;;;5053818;28;19916;-61
2023/03/24 03:25:11;;;;;;;;;;;;;;;;;;5054174;28;19909;-61
2023/03/24 03:27:38;;;;;;;;;;;;;;;;;;5054095;28;19909;-60
2023/03/24 03:30:03;;;;;;;;;;;;;;;;;;5055210;28;19913;-60
2023/03/24 03:32:29;;;;;;;;;;;;;;;;;;5055732;28;20269;-60
2023/03/24 03:34:55;;;;;;;;;;;;;;;;;;5055597;28;19925;-61
2023/03/24 03:37:21;;;;;;;;;;;;;;;;;;5056936;28;20003;-60
2023/03/24 03:39:47;;;;;;;;;;;;;;;;;;5056404;28;20376;-61
2023/03/24 03:42:13;;;;;;;;;;;;;;;;;;5057223;28;19935;-60
2023/03/24 03:44:39;;;;;;;;;;;;;;;;;;5055731;28;19955;-60
2023/03/24 03:47:05;;;;;;;;;;;;;;;;;;5057735;28;19916;-61
2023/03/24 03:49:31;;;;;;;;;;;;;;;;;;5057795;28;20360;-61
2023/03/24 03:51:57;;;;;;;;;;;;;;;;;;5060630;28;19916;-61
2023/03/24 03:54:23;;;;;;;;;;;;;;;;;;5061800;28;20331;-61
2023/03/24 03:56:49;;;;;;;;;;;;;;;;;;5059484;28;20370;-61
2023/03/24 03:59:15;;;;;;;;;;;;;;;;;;5058985;28;20004;-61
2023/03/24 04:01:41;;;;;;;;;;;;;;;;;;5058257;28;19948;-62
2023/03/24 04:04:06;;;;;;;;;;;;;;;;;;5059584;28;20027;-61
2023/03/24 04:06:32;;;;;;;;;;;;;;;;;;5059546;28;20095;-61
2023/03/24 04:09:00;;;;;;;;;;;;;;;;;;5059452;28;19913;-61
2023/03/24 04:11:26;;;;;;;;;;;;;;;;;;5060288;28;20275;-61
2023/03/24 04:13:52;;;;;;;;;;;;;;;;;;5064889;28;19920;-61
2023/03/24 04:16:19;;;;;;;;;;;;;;;;;;5059855;28;20007;-61
2023/03/24 04:18:45;;;;;;;;;;;;;;;;;;5058314;28;20380;-61
2023/03/24 04:21:11;;;;;;;;;;;;;;;;;;5058839;28;20003;-61
2023/03/24 04:23:38;;;;;;;;;;;;;;;;;;5057881;28;19909;-60
2023/03/24 04:26:04;;;;;;;;;;;;;;;;;;5057673;28;19959;-62
2023/03/24 04:28:30;;;;;;;;;;;;;;;;;;5058431;28;19943;-61
2023/03/24 04:30:56;;;;;;;;;;;;;;;;;;5058384;28;19908;-61
2023/03/24 04:33:23;;;;;;;;;;;;;;;;;;5058991;28;19994;-61
2023/03/24 04:35:51;;;;;;;;;;;;;;;;;;5057356;28;19921;-61
2023/03/24 04:38:17;;;;;;;;;;;;;;;;;;5058727;28;19908;-61
2023/03/24 04:40:42;;;;;;;;;;;;;;;;;;5056421;28;20411;-61
2023/03/24 04:43:08;;;;;;;;;;;;;;;;;;5057835;28;19912;-61
2023/03/24 04:45:35;;;;;;;;;;;;;;;;;;5056219;28;19952;-60
2023/03/24 04:48:01;;;;;;;;;;;;;;;;;;5056542;28;20008;-61
2023/03/24 04:50:29;;;;;;;;;;;;;;;;;;5055885;28;19995;-61
2023/03/24 04:52:55;;;;;;;;;;;;;;;;;;5055561;28;19964;-61
2023/03/24 04:55:21;;;;;;;;;;;;;;;;;;5056017;28;19913;-61
2023/03/24 04:57:47;;;;;;;;;;;;;;;;;;5055290;28;20372;-61
2023/03/24 05:00:12;;;;;;;;;;;;;;;;;;5055518;28;19999;-61
2023/03/24 05:02:38;;;;;;;;;;;;;;;;;;5054434;28;19913;-60
2023/03/24 05:05:04;;;;;;;;;;;;;;;;;;5056636;28;19920;-61
2023/03/24 05:07:30;;;;;;;;;;;;;;;;;;5057307;28;19913;-61
2023/03/24 05:09:56;;;;;;;;;;;;;;;;;;5055584;28;20351;-61
2023/03/24 05:12:22;;;;;;;;;;;;;;;;;;5056481;28;20000;-61
2023/03/24 05:14:48;;;;;;;;;;;;;;;;;;5054406;28;19913;-61
2023/03/24 05:17:14;;;;;;;;;;;;;;;;;;5056458;28;19909;-61
2023/03/24 05:19:40;;;;;;;;;;;;;;;;;;5056007;28;20258;-60
2023/03/24 05:22:06;;;;;;;;;;;;;;;;;;5056154;28;19915;-61
2023/03/24 05:24:32;;;;;;;;;;;;;;;;;;5055798;28;19909;-61
2023/03/24 05:26:57;;;;;;;;;;;;;;;;;;5055458;28;19919;-61
2023/03/24 05:29:23;;;;;;;;;;;;;;;;;;5052292;28;20029;-61
2023/03/24 05:31:49;;;;;;;;;;;;;;;;;;5053591;28;19917;-61
2023/03/24 05:34:15;;;;;;;;;;;;;;;;;;5054613;28;20323;-60
2023/03/24 05:36:41;;;;;;;;;;;;;;;;;;5055111;28;19916;-61
2023/03/24 05:39:07;;;;;;;;;;;;;;;;;;5056379;28;20387;-61
2023/03/24 05:41:33;;;;;;;;;;;;;;;;;;5056236;28;20020;-61
2023/03/24 05:43:59;;;;;;;;;;;;;;;;;;5055589;28;19959;-61
2023/03/24 05:46:25;;;;;;;;;;;;;;;;;;5057536;28;19948;-61
2023/03/24 05:48:51;;;;;;;;;;;;;;;;;;5057419;28;19908;-61
2023/03/24 05:51:16;;;;;;;;;;;;;;;;;;5057147;28;19989;-61
2023/03/24 05:53:42;;;;;;;;;;;;;;;;;;5057053;28;19915;-61
2023/03/24 05:56:10;;;;;;;;;;;;;;;;;;5056803;28;19920;-61
2023/03/24 05:58:38;;;;;;;;;;;;;;;;;;5056726;28;19908;-60
2023/03/24 06:01:05;;;;;;;;;;;;;;;;;;5055986;28;19913;-60
2023/03/24 06:03:33;;;;;;;;;;;;;;;;;;5055760;28;19943;-60
2023/03/24 06:05:58;;;;;;;;;;;;;;;;;;5055112;28;19909;-61
2023/03/24 06:08:27;;;;;;;;;;;;;;;;;;5056222;28;19954;-61
2023/03/24 06:10:53;;;;;;;;;;;;;;;;;;5055672;28;19970;-61
2023/03/24 06:13:19;;;;;;;;;;;;;;;;;;5056331;28;19913;-61
2023/03/24 06:15:46;;;;;;;;;;;;;;;;;;5053172;28;20056;-61
2023/03/24 06:18:13;;;;;;;;;;;;;;;;;;5055784;28;19916;-61
2023/03/24 06:20:40;;;;;;;;;;;;;;;;;;5056819;28;19909;-61
2023/03/24 06:23:06;;;;;;;;;;;;;;;;;;5057612;28;19935;-61
2023/03/24 06:25:32;;;;;;;;;;;;;;;;;;5057701;28;20000;-61
2023/03/24 06:28:02;;;;;;;;;;;;;;;;;;5056671;28;19908;-61
2023/03/24 06:30:28;;;;;;;;;;;;;;;;;;5057639;28;19913;-61
2023/03/24 06:32:55;;;;;;;;;;;;;;;;;;5057376;28;20404;-61
2023/03/24 06:35:21;;;;;;;;;;;;;;;;;;5057922;28;19958;-61
2023/03/24 06:37:46;;;;;;;;;;;;;;;;;;5057758;28;19909;-61
2023/03/24 06:40:14;;;;;;;;;;;;;;;;;;5057517;28;19909;-61
2023/03/24 06:42:40;;;;;;;;;;;;;;;;;;5058134;28;20001;-61
2023/03/24 06:45:06;;;;;;;;;;;;;;;;;;5055213;28;19909;-61
2023/03/24 06:47:32;;;;;;;;;;;;;;;;;;5058196;28;19995;-61
2023/03/24 06:49:58;;;;;;;;;;;;;;;;;;5058400;28;19915;-61
2023/03/24 06:52:24;;;;;;;;;;;;;;;;;;5058335;28;20143;-61
2023/03/24 06:54:50;;;;;;;;;;;;;;;;;;5057927;28;19948;-60
2023/03/24 06:57:16;;;;;;;;;;;;;;;;;;5058122;28;19916;-61
2023/03/24 06:59:42;;;;;;;;;;;;;;;;;;5056975;28;20280;-60
2023/03/24 07:02:09;;;;;;;;;;;;;;;;;;5058874;28;19916;-61
2023/03/24 07:04:35;;;;;;;;;;;;;;;;;;5058291;28;20019;-61
2023/03/24 07:07:01;;;;;;;;;;;;;;;;;;5057015;28;19939;-61
2023/03/24 07:09:27;;;;;;;;;;;;;;;;;;5057746;28;20364;-61
2023/03/24 07:11:53;;;;;;;;;;;;;;;;;;5057158;28;19956;-60
2023/03/24 07:14:20;;;;;;;;;;;;;;;;;;5055427;28;20249;-61
2023/03/24 07:16:46;;;;;;;;;;;;;;;;;;5056420;28;19909;-61
2023/03/24 07:19:12;;;;;;;;;;;;;;;;;;5055676;28;19932;-60
2023/03/24 07:21:38;;;;;;;;;;;;;;;;;;5047443;28;19917;-60
2023/03/24 07:24:04;;;;;;;;;;;;;;;;;;5046529;28;20358;-61
2023/03/24 07:26:30;;;;;;;;;;;;;;;;;;5050289;28;19916;-61
2023/03/24 07:28:56;;;;;;;;;;;;;;;;;;5053082;28;19913;-60
2023/03/24 07:31:23;;;;;;;;;;;;;;;;;;5054400;28;19909;-61
2023/03/24 07:33:49;;;;;;;;;;;;;;;;;;5049659;28;20372;-60
2023/03/24 07:36:17;;;;;;;;;;;;;;;;;;5052315;28;20417;-61
2023/03/24 07:38:42;;;;;;;;;;;;;;;;;;5053587;28;19909;-60
2023/03/24 07:41:08;;;;;;;;;;;;;;;;;;5052670;28;19913;-60
2023/03/24 07:43:35;;;;;;;;;;;;;;;;;;5053593;28;19952;-61
2023/03/24 07:46:00;;;;;;;;;;;;;;;;;;5050783;28;20004;-60
2023/03/24 07:48:26;;;;;;;;;;;;;;;;;;5048519;28;20304;-60
2023/03/24 07:50:53;;;;;;;;;;;;;;;;;;5049808;28;20379;-60
2023/03/24 07:53:18;;;;;;;;;;;;;;;;;;5049137;28;19910;-61
2023/03/24 07:55:44;;;;;;;;;;;;;;;;;;5049602;28;20340;-61
2023/03/24 07:58:10;;;;;;;;;;;;;;;;;;5050476;28;19909;-61
2023/03/24 08:00:37;;;;;;;;;;;;;;;;;;5046840;28;20047;-61
2023/03/24 08:03:03;;;;;;;;;;;;;;;;;;5047667;28;20320;-60
2023/03/24 08:05:29;;;;;;;;;;;;;;;;;;5053291;28;19916;-61
2023/03/24 08:07:56;;;;;;;;;;;;;;;;;;5052974;28;19935;-62
2023/03/24 08:10:22;;;;;;;;;;;;;;;;;;5050052;28;20343;-61
2023/03/24 08:12:48;;;;;;;;;;;;;;;;;;5050224;28;19920;-60
2023/03/24 08:15:14;;;;;;;;;;;;;;;;;;5043332;28;19925;-61
2023/03/24 08:17:40;;;;;;;;;;;;;;;;;;5050955;28;20364;-61
2023/03/24 08:20:12;;;;;;;;;;;;;;;;;;5050912;28;19951;-61
2023/03/24 08:22:38;;;;;;;;;;;;;;;;;;5058395;28;19970;-61
2023/03/24 08:25:04;;;;;;;;;;;;;;;;;;5053264;28;19921;-60
2023/03/24 08:27:30;;;;;;;;;;;;;;;;;;5058370;28;19965;-60
2023/03/24 08:29:56;;;;;;;;;;;;;;;;;;5048763;28;19966;-61
2023/03/24 08:32:22;;;;;;;;;;;;;;;;;;5055448;28;19913;-61
2023/03/24 08:34:48;;;;;;;;;;;;;;;;;;5054505;28;19925;-61
2023/03/24 08:37:14;;;;;;;;;;;;;;;;;;5053287;28;19923;-59
2023/03/24 08:39:39;;;;;;;;;;;;;;;;;;5062036;28;19919;-60
2023/03/24 08:42:05;;;;;;;;;;;;;;;;;;5058390;28;20342;-61
2023/03/24 08:44:31;;;;;;;;;;;;;;;;;;5057681;28;19908;-61
2023/03/24 08:46:57;;;;;;;;;;;;;;;;;;5059158;28;19913;-61
2023/03/24 08:49:23;;;;;;;;;;;;;;;;;;5056985;28;19913;-60
2023/03/24 08:51:49;;;;;;;;;;;;;;;;;;5061211;28;20297;-60
2023/03/24 08:54:15;;;;;;;;;;;;;;;;;;5055222;28;20000;-61
2023/03/24 08:56:41;;;;;;;;;;;;;;;;;;5047096;28;20406;-60
2023/03/24 08:59:07;;;;;;;;;;;;;;;;;;5051924;28;19916;-60
2023/03/24 09:01:34;;;;;;;;;;;;;;;;;;5053352;28;19920;-60
2023/03/24 09:04:00;;;;;;;;;;;;;;;;;;5053797;28;19913;-60
2023/03/24 09:06:26;;;;;;;;;;;;;;;;;;5060047;28;19913;-60
2023/03/24 09:08:52;;;;;;;;;;;;;;;;;;5056732;28;20004;-60
2023/03/24 09:11:18;;;;;;;;;;;;;;;;;;5059427;28;19955;-60
2023/03/24 09:13:44;;;;;;;;;;;;;;;;;;5058035;28;19999;-60
2023/03/24 09:16:10;;;;;;;;;;;;;;;;;;5054939;28;19938;-61
2023/03/24 09:18:36;;;;;;;;;;;;;;;;;;5059506;28;19932;-61
2023/03/24 09:21:02;;;;;;;;;;;;;;;;;;5053745;28;19909;-61
2023/03/24 09:23:30;;;;;;;;;;;;;;;;;;5043689;28;19914;-60
2023/03/24 09:25:56;;;;;;;;;;;;;;;;;;5049463;28;19920;-60
2023/03/24 09:28:22;;;;;;;;;;;;;;;;;;5052509;28;19908;-61
2023/03/24 09:30:48;;;;;;;;;;;;;;;;;;5047396;28;19944;-61
2023/03/24 09:33:14;;;;;;;;;;;;;;;;;;5052453;28;19995;-61
2023/03/24 09:35:40;;;;;;;;;;;;;;;;;;5048117;28;19929;-61
2023/03/24 09:38:06;;;;;;;;;;;;;;;;;;5049437;28;19935;-60
2023/03/24 09:40:31;;;;;;;;;;;;;;;;;;5043314;28;19917;-60
2023/03/24 09:42:57;;;;;;;;;;;;;;;;;;5048328;28;20322;-60
2023/03/24 09:45:23;;;;;;;;;;;;;;;;;;5046666;28;19959;-60
2023/03/24 09:47:49;;;;;;;;;;;;;;;;;;5050375;28;19913;-60
2023/03/24 09:50:15;;;;;;;;;;;;;;;;;;5049572;28;19920;-60
2023/03/24 09:52:41;;;;;;;;;;;;;;;;;;5054661;28;19908;-60
2023/03/24 09:55:09;;;;;;;;;;;;;;;;;;5051900;28;19917;-60
2023/03/24 09:57:36;;;;;;;;;;;;;;;;;;5048211;28;19920;-60
2023/03/24 10:00:02;;;;;;;;;;;;;;;;;;5050534;28;19912;-60
2023/03/24 10:02:28;;;;;;;;;;;;;;;;;;5066448;28;20007;-60
2023/03/24 10:04:55;;;;;;;;;;;;;;;;;;5044212;28;19913;-61
2023/03/24 10:07:21;;;;;;;;;;;;;;;;;;5048595;28;19923;-60
2023/03/24 10:09:47;;;;;;;;;;;;;;;;;;5049383;28;19916;-60
2023/03/24 10:12:13;;;;;;;;;;;;;;;;;;5049113;28;20003;-60
2023/03/24 10:14:39;;;;;;;;;;;;;;;;;;5043557;28;19917;-60
2023/03/24 10:17:05;;;;;;;;;;;;;;;;;;5051668;28;19909;-61
2023/03/24 10:19:31;;;;;;;;;;;;;;;;;;5049057;28;19913;-60
2023/03/24 10:21:57;;;;;;;;;;;;;;;;;;5049415;28;19927;-60
2023/03/24 10:24:23;;;;;;;;;;;;;;;;;;5052961;28;19955;-60
2023/03/24 10:26:49;;;;;;;;;;;;;;;;;;5060058;28;19912;-60
2023/03/24 10:29:15;;;;;;;;;;;;;;;;;;5045520;28;19916;-60
2023/03/24 10:31:41;;;;;;;;;;;;;;;;;;5045365;28;20291;-61
2023/03/24 10:34:07;;;;;;;;;;;;;;;;;;5049360;28;19912;-60
2023/03/24 10:36:33;;;;;;;;;;;;;;;;;;5052506;28;20249;-60
2023/03/24 10:38:59;;;;;;;;;;;;;;;;;;5052040;28;19944;-60
2023/03/24 10:41:26;;;;;;;;;;;;;;;;;;5048461;28;19909;-60
2023/03/24 10:43:52;;;;;;;;;;;;;;;;;;5047675;28;19909;-60
2023/03/24 10:46:18;;;;;;;;;;;;;;;;;;5049033;28;19966;-60
2023/03/24 10:48:44;;;;;;;;;;;;;;;;;;5050681;28;20149;-60
2023/03/24 10:51:10;;;;;;;;;;;;;;;;;;5047013;28;19916;-60
2023/03/24 10:53:36;;;;;;;;;;;;;;;;;;5047568;28;19947;-60
2023/03/24 10:56:02;;;;;;;;;;;;;;;;;;5041228;28;20289;-60
2023/03/24 10:58:28;;;;;;;;;;;;;;;;;;5044289;28;19913;-60
2023/03/24 11:00:54;;;;;;;;;;;;;;;;;;5042121;28;19938;-60
2023/03/24 11:03:20;;;;;;;;;;;;;;;;;;5048375;28;19915;-60
2023/03/24 11:05:46;;;;;;;;;;;;;;;;;;5048170;28;20261;-60
2023/03/24 11:08:11;;;;;;;;;;;;;;;;;;5048620;28;20043;-60
2023/03/24 11:10:37;;;;;;;;;;;;;;;;;;5048975;28;19913;-60
2023/03/24 11:13:06;;;;;;;;;;;;;;;;;;5045517;28;19948;-60
2023/03/24 11:15:32;;;;;;;;;;;;;;;;;;5047286;28;19924;-61
2023/03/24 11:17:58;;;;;;;;;;;;;;;;;;5041647;28;20297;-60
2023/03/24 11:20:24;;;;;;;;;;;;;;;;;;5046769;28;19921;-60
2023/03/24 11:22:50;;;;;;;;;;;;;;;;;;5051416;28;19920;-60
2023/03/24 11:25:16;;;;;;;;;;;;;;;;;;5049174;28;19963;-60
2023/03/24 11:27:42;;;;;;;;;;;;;;;;;;5047640;28;19909;-60
2023/03/24 11:30:08;;;;;;;;;;;;;;;;;;5050387;28;19917;-60
2023/03/24 11:32:34;;;;;;;;;;;;;;;;;;5047545;28;19931;-60
2023/03/24 11:35:00;;;;;;;;;;;;;;;;;;5042129;28;19920;-60
2023/03/24 11:37:26;;;;;;;;;;;;;;;;;;5048827;28;20000;-60
2023/03/24 11:39:51;;;;;;;;;;;;;;;;;;5044818;28;20084;-60
2023/03/24 11:42:17;;;;;;;;;;;;;;;;;;5049840;28;19909;-60
2023/03/24 11:44:43;;;;;;;;;;;;;;;;;;5047800;28;19912;-60
2023/03/24 11:47:10;;;;;;;;;;;;;;;;;;5051301;28;20329;-60
2023/03/24 11:49:36;;;;;;;;;;;;;;;;;;5049336;28;19949;-61
2023/03/24 11:52:01;;;;;;;;;;;;;;;;;;5047001;28;20020;-60
2023/03/24 11:54:27;;;;;;;;;;;;;;;;;;5055075;28;19971;-60
2023/03/24 11:56:53;;;;;;;;;;;;;;;;;;5045967;28;19913;-60
2023/03/24 11:59:19;;;;;;;;;;;;;;;;;;5069142;28;19909;-60
2023/03/24 12:01:45;;;;;;;;;;;;;;;;;;5051990;28;19908;-60
2023/03/24 12:04:11;;;;;;;;;;;;;;;;;;5049766;28;20391;-61
2023/03/24 12:06:37;;;;;;;;;;;;;;;;;;5052001;28;19917;-61
2023/03/24 12:09:04;;;;;;;;;;;;;;;;;;5047728;28;19913;-60
2023/03/24 12:11:29;;;;;;;;;;;;;;;;;;5049984;28;20403;-60
2023/03/24 12:13:55;;;;;;;;;;;;;;;;;;5051011;28;19909;-61
2023/03/24 12:16:21;;;;;;;;;;;;;;;;;;5053440;28;19912;-60
2023/03/24 12:18:47;;;;;;;;;;;;;;;;;;5054353;28;19908;-61
2023/03/24 12:21:13;;;;;;;;;;;;;;;;;;5048450;28;19923;-62
2023/03/24 12:23:39;;;;;;;;;;;;;;;;;;5050714;28;19916;-61
2023/03/24 12:26:06;;;;;;;;;;;;;;;;;;5051342;28;19909;-60
2023/03/24 12:28:32;;;;;;;;;;;;;;;;;;5048447;28;19933;-61
2023/03/24 12:30:58;;;;;;;;;;;;;;;;;;5051271;28;19909;-60
2023/03/24 12:33:23;;;;;;;;;;;;;;;;;;5056809;28;20003;-60
2023/03/24 12:35:49;;;;;;;;;;;;;;;;;;5054046;28;19947;-60
2023/03/24 12:38:15;;;;;;;;;;;;;;;;;;5054317;28;20458;-61
2023/03/24 12:40:41;;;;;;;;;;;;;;;;;;5057993;28;19913;-61
2023/03/24 12:43:07;;;;;;;;;;;;;;;;;;5056173;28;20410;-60
2023/03/24 12:45:33;;;;;;;;;;;;;;;;;;5052360;28;19913;-61
2023/03/24 12:47:59;;;;;;;;;;;;;;;;;;5055425;28;19915;-61
2023/03/24 12:50:25;;;;;;;;;;;;;;;;;;5046064;28;19913;-61
2023/03/24 12:52:51;;;;;;;;;;;;;;;;;;5050385;28;19917;-61
2023/03/24 12:55:17;;;;;;;;;;;;;;;;;;5053783;28;20384;-60
2023/03/24 12:57:43;;;;;;;;;;;;;;;;;;5048117;28;19914;-60
2023/03/24 13:00:10;;;;;;;;;;;;;;;;;;5074952;28;19936;-60
2023/03/24 13:02:36;;;;;;;;;;;;;;;;;;5057036;28;20162;-60
2023/03/24 13:05:05;;;;;;;;;;;;;;;;;;5053607;28;19954;-60
2023/03/24 13:07:34;;;;;;;;;;;;;;;;;;5054085;28;19921;-60
2023/03/24 13:10:00;;;;;;;;;;;;;;;;;;5056591;28;19919;-60
2023/03/24 13:12:26;;;;;;;;;;;;;;;;;;5052987;28;19913;-61
2023/03/24 13:14:52;;;;;;;;;;;;;;;;;;5052207;28;19916;-60
2023/03/24 13:17:18;;;;;;;;;;;;;;;;;;5044069;28;20731;-61
2023/03/24 13:19:44;;;;;;;;;;;;;;;;;;5048693;28;20007;-61
2023/03/24 13:22:10;;;;;;;;;;;;;;;;;;5051094;28;20004;-60
2023/03/24 13:24:36;;;;;;;;;;;;;;;;;;5051509;28;19926;-60
2023/03/24 13:27:01;;;;;;;;;;;;;;;;;;5051475;28;20415;-61
2023/03/24 13:29:27;;;;;;;;;;;;;;;;;;5048500;28;19944;-60
2023/03/24 13:31:53;;;;;;;;;;;;;;;;;;5053828;28;20307;-60
2023/03/24 13:34:19;;;;;;;;;;;;;;;;;;5040206;28;19917;-59
2023/03/24 13:36:45;;;;;;;;;;;;;;;;;;5046910;28;19920;-61
2023/03/24 13:39:11;;;;;;;;;;;;;;;;;;5050993;28;20420;-60
2023/03/24 13:41:38;;;;;;;;;;;;;;;;;;5051592;28;19909;-61
2023/03/24 13:44:04;;;;;;;;;;;;;;;;;;5048421;28;19920;-61
2023/03/24 13:46:30;;;;;;;;;;;;;;;;;;5047090;28;19909;-61
2023/03/24 13:48:56;;;;;;;;;;;;;;;;;;5050057;28;19940;-61
2023/03/24 13:51:22;;;;;;;;;;;;;;;;;;5055345;28;20364;-60
2023/03/24 13:53:48;;;;;;;;;;;;;;;;;;5042454;28;20395;-61
2023/03/24 13:56:14;;;;;;;;;;;;;;;;;;5047884;28;20296;-61
2023/03/24 13:58:40;;;;;;;;;;;;;;;;;;5049560;28;20339;-61
2023/03/24 14:01:05;;;;;;;;;;;;;;;;;;5056563;28;19913;-60
2023/03/24 14:03:31;;;;;;;;;;;;;;;;;;5049905;28;19955;-61
2023/03/24 14:05:57;;;;;;;;;;;;;;;;;;5043896;28;20001;-60
2023/03/24 14:08:23;;;;;;;;;;;;;;;;;;5057855;28;19920;-60
2023/03/24 14:10:50;;;;;;;;;;;;;;;;;;5042075;28;20376;-61
2023/03/24 14:13:16;;;;;;;;;;;;;;;;;;5037589;28;19917;-60
2023/03/24 14:15:42;;;;;;;;;;;;;;;;;;5045623;28;19927;-61
2023/03/24 14:18:08;;;;;;;;;;;;;;;;;;5039140;28;19948;-62
2023/03/24 14:20:34;;;;;;;;;;;;;;;;;;5043152;28;19920;-61
2023/03/24 14:23:00;;;;;;;;;;;;;;;;;;5040709;28;19909;-60
2023/03/24 14:25:26;;;;;;;;;;;;;;;;;;5039774;28;20440;-60
2023/03/24 14:27:52;;;;;;;;;;;;;;;;;;5055522;28;19909;-61
2023/03/24 14:30:18;;;;;;;;;;;;;;;;;;5055101;28;19909;-60
2023/03/24 14:32:44;;;;;;;;;;;;;;;;;;5053067;28;19942;-60
2023/03/24 14:35:10;;;;;;;;;;;;;;;;;;5045957;28;19925;-61
2023/03/24 14:37:36;;;;;;;;;;;;;;;;;;5056596;28;19970;-61
2023/03/24 14:40:02;;;;;;;;;;;;;;;;;;5051910;28;20669;-60
2023/03/24 14:42:28;;;;;;;;;;;;;;;;;;5054347;28;19909;-61
2023/03/24 14:44:54;;;;;;;;;;;;;;;;;;5056036;28;20296;-60
2023/03/24 14:47:20;;;;;;;;;;;;;;;;;;5050755;28;20394;-61
2023/03/24 14:49:46;;;;;;;;;;;;;;;;;;5048143;28;20059;-60
2023/03/24 14:52:12;;;;;;;;;;;;;;;;;;5045057;28;19917;-60
2023/03/24 14:54:38;;;;;;;;;;;;;;;;;;5046835;28;20476;-61
2023/03/24 14:57:04;;;;;;;;;;;;;;;;;;5051859;28;19948;-62
2023/03/24 14:59:30;;;;;;;;;;;;;;;;;;5051924;28;19988;-60
2023/03/24 15:01:56;;;;;;;;;;;;;;;;;;5048866;28;19920;-60
2023/03/24 15:04:22;;;;;;;;;;;;;;;;;;5048084;28;19917;-60
2023/03/24 15:06:48;;;;;;;;;;;;;;;;;;5054751;28;19916;-60
2023/03/24 15:09:14;;;;;;;;;;;;;;;;;;5051296;28;19913;-60
2023/03/24 15:11:40;;;;;;;;;;;;;;;;;;5049453;28;19909;-60
2023/03/24 15:14:06;;;;;;;;;;;;;;;;;;5046420;28;19977;-60
2023/03/24 15:16:32;;;;;;;;;;;;;;;;;;5051476;28;19917;-60
2023/03/24 15:18:57;;;;;;;;;;;;;;;;;;5050796;28;20368;-61
2023/03/24 15:21:24;;;;;;;;;;;;;;;;;;5045041;28;19924;-61
2023/03/24 15:23:50;;;;;;;;;;;;;;;;;;5051830;28;20016;-60
2023/03/24 15:26:17;;;;;;;;;;;;;;;;;;5047123;28;20024;-60
2023/03/24 15:28:43;;;;;;;;;;;;;;;;;;5045879;28;19925;-60
2023/03/24 15:31:09;;;;;;;;;;;;;;;;;;5052958;28;19924;-60
2023/03/24 15:33:35;;;;;;;;;;;;;;;;;;5050651;28;20357;-60
2023/03/24 15:36:02;;;;;;;;;;;;;;;;;;5044004;28;19964;-61
2023/03/24 15:38:28;;;;;;;;;;;;;;;;;;5045654;28;19943;-61
2023/03/24 15:40:54;;;;;;;;;;;;;;;;;;5039741;28;19925;-60
2023/03/24 15:43:20;;;;;;;;;;;;;;;;;;5043424;28;19976;-60
2023/03/24 15:45:46;;;;;;;;;;;;;;;;;;5045929;28;19924;-61
2023/03/24 15:48:12;;;;;;;;;;;;;;;;;;5050712;28;19913;-60
2023/03/24 15:50:38;;;;;;;;;;;;;;;;;;5047878;28;20351;-60
2023/03/24 15:53:04;;;;;;;;;;;;;;;;;;5053958;28;19939;-60
2023/03/24 15:55:30;;;;;;;;;;;;;;;;;;5045494;28;20359;-60
2023/03/24 15:57:56;;;;;;;;;;;;;;;;;;5048280;28;20375;-60
2023/03/24 16:00:22;;;;;;;;;;;;;;;;;;5048432;28;19916;-60
2023/03/24 16:02:50;;;;;;;;;;;;;;;;;;5050931;28;19958;-60
2023/03/24 16:05:18;;;;;;;;;;;;;;;;;;5050841;28;19924;-60
2023/03/24 16:07:44;;;;;;;;;;;;;;;;;;5058249;28;19921;-60
2023/03/24 16:10:10;;;;;;;;;;;;;;;;;;5050782;28;20364;-61
2023/03/24 16:12:37;;;;;;;;;;;;;;;;;;5048844;28;19924;-60
2023/03/24 16:15:04;;;;;;;;;;;;;;;;;;5051642;28;20408;-60
2023/03/24 16:17:30;;;;;;;;;;;;;;;;;;5049640;28;19913;-60
2023/03/24 16:19:56;;;;;;;;;;;;;;;;;;5055244;28;19913;-60
2023/03/24 16:22:22;;;;;;;;;;;;;;;;;;5052834;28;20634;-60
2023/03/24 16:24:48;;;;;;;;;;;;;;;;;;5049199;28;19913;-60
2023/03/24 16:27:14;;;;;;;;;;;;;;;;;;5049964;28;19967;-60
2023/03/24 16:29:40;;;;;;;;;;;;;;;;;;5047637;28;19913;-60
2023/03/24 16:32:06;;;;;;;;;;;;;;;;;;5051186;28;20377;-60
2023/03/24 16:34:32;;;;;;;;;;;;;;;;;;5057041;28;19921;-60
2023/03/24 16:36:57;;;;;;;;;;;;;;;;;;5052867;28;20404;-60